Terminal Aerodrome Forecast
Issued by NWS

Home | Current Version | Previous Version | Text Only | Print | Product List | Glossary On
Versions: 1 2 3 4 5 6 7 8 9 10 11 12 13 14 15 16 17 18 19 20 21
000
FTUS43 KMKX 211720
TAFENW
TAF
KENW 211720Z 2118/2218 27005KT P6SM SCT250
     FM212100 15007KT P6SM FEW250
     FM220200 19004KT P6SM FEW200
     FM220700 22008KT P6SM FEW200
     FM221700 22012G19KT P6SM FEW200=

USA.gov is the U.S. government's official web portal to all federal, state and local government web resources and services.